Terminal Aerodrome Forecast
Issued by NWS Sterling, VA

Current Version | Previous Version | Text Only | Print | Product List | Glossary Off
Versions: 1 2 3 4 5 6 7 8 9 10 11 12 13 14 15 16 17 18 19 20 21 22 23

000
FTUS41 KLWX 232105 AAA
TAFDCA
TAF AMD
KDCA 232105Z 2321/2418 06004KT P6SM FEW250
     FM232300 08005KT P6SM BKN090
     FM241100 08006KT P6SM BKN025 OVC050=

USA.gov is the U.S. government's official web portal to all federal, state and local government web resources and services.